This is the latest recevied weather packets stored in our database for station/object KE2A-13. If no packets are shown the sender has not sent any weather packets the latest 10 day(s).
| Time | Temp. | Humidity | Pressure | Rain* | Wind** | Luminosity | Snow |
|---|---|---|---|---|---|---|---|
| 1778099400 | 16.67° C | 97% | 1006.5 hPa | 0.51 mm | - | - | - |
| 1778098500 | 16.67° C | 97% | 1006.6 hPa | 1.02 mm | - | - | - |
| 1778097600 | 16.67° C | 97% | 1007 hPa | 1.02 mm | - | - | - |
| 1778096700 | 16.67° C | 96% | 1007.1 hPa | 0.76 mm | - | - | - |
| 1778095800 | 16.67° C | 95% | 1007.3 hPa | 0.51 mm | - | - | - |
| 1778094900 | 16.67° C | 92% | 1007.3 hPa | - | - | - | - |
| 1778094000 | 17.22° C | 90% | 1007.3 hPa | - | - | - | - |
| 1778093100 | 17.22° C | 88% | 1007.4 hPa | 0.25 mm | - | - | - |
| 1778092200 | 17.22° C | 89% | 1007.5 hPa | 0.76 mm | - | - | - |
| 1778091300 | 17.22° C | 89% | 1007.6 hPa | 1.02 mm | - | - | - |
| 1778090400 | 17.78° C | 89% | 1007.8 hPa | 1.27 mm | - | - | - |
| 1778089500 | 17.78° C | 88% | 1007.9 hPa | 1.27 mm | - | - | - |
| 1778088600 | 17.78° C | 87% | 1007.8 hPa | 1.52 mm | - | - | - |
| 1778087700 | 17.78° C | 87% | 1007.8 hPa | 1.27 mm | - | - | - |
| 1778086800 | 17.78° C | 86% | 1007.8 hPa | 1.27 mm | - | - | - |
| 1778085900 | 18.33° C | 83% | 1008 hPa | 0.76 mm | - | - | - |
| 1778085000 | 18.89° C | 78% | 1008.5 hPa | 0.25 mm | - | - | - |
| 1778084100 | 18.89° C | 79% | 1008.8 hPa | 0.25 mm | - | - | - |
| 1778083200 | 19.44° C | 77% | 1008.7 hPa | - | - | - | - |
| 1778082300 | 19.44° C | 75% | 1008.8 hPa | - | - | - | - |
| 1778081400 | 20° C | 74% | 1008.9 hPa | - | - | - | - |
| 1778080500 | 20° C | 72% | 1009.1 hPa | - | - | - | - |
| 1778079600 | 20.56° C | 70% | 1009.1 hPa | - | - | - | - |
| 1778078700 | 20.56° C | 71% | 1008.9 hPa | - | - | - | - |
| 1778077800 | 20.56° C | 71% | 1009 hPa | - | - | - | - |
* Rain latest hour (hover to see other rain measurements)
** Current wind speed in m/s (hover to see current wind gust speed)